sensor_id;sensor_type;location;lat;lon;timestamp;temperature;humidity
55721;DHT22;41626;53.098;6.168;2023-04-03T00:01:32;2.70;99.90
55721;DHT22;41626;53.098;6.168;2023-04-03T00:03:58;2.70;99.90
55721;DHT22;41626;53.098;6.168;2023-04-03T00:06:24;2.70;99.90
55721;DHT22;41626;53.098;6.168;2023-04-03T00:08:50;2.60;99.90
55721;DHT22;41626;53.098;6.168;2023-04-03T00:11:17;2.70;99.90
55721;DHT22;41626;53.098;6.168;2023-04-03T00:13:43;2.60;99.90
55721;DHT22;41626;53.098;6.168;2023-04-03T00:16:10;2.50;99.90
55721;DHT22;41626;53.098;6.168;2023-04-03T00:18:37;2.50;99.90
55721;DHT22;41626;53.098;6.168;2023-04-03T00:21:04;2.50;99.90
55721;DHT22;41626;53.098;6.168;2023-04-03T00:23:30;2.50;99.90
55721;DHT22;41626;53.098;6.168;2023-04-03T00:25:55;2.50;99.90
55721;DHT22;41626;53.098;6.168;2023-04-03T00:28:21;2.40;99.90
55721;DHT22;41626;53.098;6.168;2023-04-03T00:30:49;2.40;99.90
55721;DHT22;41626;53.098;6.168;2023-04-03T00:33:15;2.40;99.90
55721;DHT22;41626;53.098;6.168;2023-04-03T00:35:41;2.30;99.90
55721;DHT22;41626;53.098;6.168;2023-04-03T00:38:07;2.30;99.90
55721;DHT22;41626;53.098;6.168;2023-04-03T00:40:43;2.30;99.90
55721;DHT22;41626;53.098;6.168;2023-04-03T00:43:14;2.30;99.90
55721;DHT22;41626;53.098;6.168;2023-04-03T00:45:51;2.20;99.90
55721;DHT22;41626;53.098;6.168;2023-04-03T00:48:30;2.20;99.90
55721;DHT22;41626;53.098;6.168;2023-04-03T00:50:57;2.10;99.90
55721;DHT22;41626;53.098;6.168;2023-04-03T00:53:48;2.20;99.90
55721;DHT22;41626;53.098;6.168;2023-04-03T00:56:17;2.10;99.90
55721;DHT22;41626;53.098;6.168;2023-04-03T00:58:57;2.20;99.90
55721;DHT22;41626;53.098;6.168;2023-04-03T01:03:55;2.10;99.90
55721;DHT22;41626;53.098;6.168;2023-04-03T01:06:25;2.00;99.90
55721;DHT22;41626;53.098;6.168;2023-04-03T01:08:52;2.00;99.90
55721;DHT22;41626;53.098;6.168;2023-04-03T01:11:18;2.00;99.90
55721;DHT22;41626;53.098;6.168;2023-04-03T01:13:46;1.90;99.90
55721;DHT22;41626;53.098;6.168;2023-04-03T01:16:11;1.90;99.90
55721;DHT22;41626;53.098;6.168;2023-04-03T01:18:39;1.80;99.90
55721;DHT22;41626;53.098;6.168;2023-04-03T01:24:00;1.80;99.90
55721;DHT22;41626;53.098;6.168;2023-04-03T01:26:28;1.70;99.90
55721;DHT22;41626;53.098;6.168;2023-04-03T01:28:55;1.70;99.90
55721;DHT22;41626;53.098;6.168;2023-04-03T01:33:52;1.70;99.90
55721;DHT22;41626;53.098;6.168;2023-04-03T01:36:21;1.60;99.90
55721;DHT22;41626;53.098;6.168;2023-04-03T01:38:48;1.60;99.90
55721;DHT22;41626;53.098;6.168;2023-04-03T01:41:14;1.60;99.90
55721;DHT22;41626;53.098;6.168;2023-04-03T01:43:41;1.60;99.90
55721;DHT22;41626;53.098;6.168;2023-04-03T01:46:06;1.60;99.90
55721;DHT22;41626;53.098;6.168;2023-04-03T01:48:33;1.60;99.90
55721;DHT22;41626;53.098;6.168;2023-04-03T01:50:59;1.50;99.90
55721;DHT22;41626;53.098;6.168;2023-04-03T01:53:25;1.50;99.90
55721;DHT22;41626;53.098;6.168;2023-04-03T01:55:50;1.50;99.90
55721;DHT22;41626;53.098;6.168;2023-04-03T01:58:16;1.40;99.90
55721;DHT22;41626;53.098;6.168;2023-04-03T02:00:42;1.30;99.90
55721;DHT22;41626;53.098;6.168;2023-04-03T02:03:08;1.20;99.90
55721;DHT22;41626;53.098;6.168;2023-04-03T02:05:33;1.30;99.90
55721;DHT22;41626;53.098;6.168;2023-04-03T02:07:59;1.20;99.90
55721;DHT22;41626;53.098;6.168;2023-04-03T02:10:25;1.20;99.90
55721;DHT22;41626;53.098;6.168;2023-04-03T02:12:51;1.20;99.90
55721;DHT22;41626;53.098;6.168;2023-04-03T02:15:17;1.20;99.90
55721;DHT22;41626;53.098;6.168;2023-04-03T02:17:43;1.20;99.90
55721;DHT22;41626;53.098;6.168;2023-04-03T02:20:09;1.10;99.90
55721;DHT22;41626;53.098;6.168;2023-04-03T02:22:35;1.20;99.90
55721;DHT22;41626;53.098;6.168;2023-04-03T02:25:01;1.10;99.90
55721;DHT22;41626;53.098;6.168;2023-04-03T02:27:26;1.10;99.90
55721;DHT22;41626;53.098;6.168;2023-04-03T02:29:52;1.00;99.90
55721;DHT22;41626;53.098;6.168;2023-04-03T02:32:18;1.00;99.90
55721;DHT22;41626;53.098;6.168;2023-04-03T02:34:44;1.00;99.90
55721;DHT22;41626;53.098;6.168;2023-04-03T02:37:10;1.00;99.90
55721;DHT22;41626;53.098;6.168;2023-04-03T02:39:35;1.10;99.90
55721;DHT22;41626;53.098;6.168;2023-04-03T02:42:01;1.00;99.90
55721;DHT22;41626;53.098;6.168;2023-04-03T02:44:27;1.00;99.90
55721;DHT22;41626;53.098;6.168;2023-04-03T02:46:52;1.00;99.90
55721;DHT22;41626;53.098;6.168;2023-04-03T02:49:18;0.90;99.90
55721;DHT22;41626;53.098;6.168;2023-04-03T02:51:44;0.90;99.90
55721;DHT22;41626;53.098;6.168;2023-04-03T02:54:11;0.90;99.90
55721;DHT22;41626;53.098;6.168;2023-04-03T02:56:36;0.90;99.90
55721;DHT22;41626;53.098;6.168;2023-04-03T02:59:03;0.80;99.90
55721;DHT22;41626;53.098;6.168;2023-04-03T03:01:29;0.90;99.90
55721;DHT22;41626;53.098;6.168;2023-04-03T03:03:57;0.80;99.90
55721;DHT22;41626;53.098;6.168;2023-04-03T03:06:23;0.80;99.90
55721;DHT22;41626;53.098;6.168;2023-04-03T03:08:48;0.80;99.90
55721;DHT22;41626;53.098;6.168;2023-04-03T03:11:14;0.70;99.90
55721;DHT22;41626;53.098;6.168;2023-04-03T03:13:40;0.70;99.90
55721;DHT22;41626;53.098;6.168;2023-04-03T03:16:06;0.80;99.90
55721;DHT22;41626;53.098;6.168;2023-04-03T03:18:32;0.60;99.90
55721;DHT22;41626;53.098;6.168;2023-04-03T03:21:01;0.60;99.90
55721;DHT22;41626;53.098;6.168;2023-04-03T03:23:28;0.60;99.90
55721;DHT22;41626;53.098;6.168;2023-04-03T03:25:59;0.60;99.90
55721;DHT22;41626;53.098;6.168;2023-04-03T03:28:25;0.60;99.90
55721;DHT22;41626;53.098;6.168;2023-04-03T03:30:51;0.60;99.90
55721;DHT22;41626;53.098;6.168;2023-04-03T03:33:17;0.50;99.90
55721;DHT22;41626;53.098;6.168;2023-04-03T03:35:43;0.50;99.90
55721;DHT22;41626;53.098;6.168;2023-04-03T03:38:10;0.50;99.90
55721;DHT22;41626;53.098;6.168;2023-04-03T03:40:35;0.40;99.90
55721;DHT22;41626;53.098;6.168;2023-04-03T03:43:01;0.40;99.90
55721;DHT22;41626;53.098;6.168;2023-04-03T03:45:26;0.30;99.90
55721;DHT22;41626;53.098;6.168;2023-04-03T03:47:52;0.40;99.90
55721;DHT22;41626;53.098;6.168;2023-04-03T03:50:18;0.30;99.90
55721;DHT22;41626;53.098;6.168;2023-04-03T03:52:44;0.30;99.90
55721;DHT22;41626;53.098;6.168;2023-04-03T03:55:10;0.30;99.90
55721;DHT22;41626;53.098;6.168;2023-04-03T03:57:36;0.30;99.90
55721;DHT22;41626;53.098;6.168;2023-04-03T04:00:02;0.30;99.90
55721;DHT22;41626;53.098;6.168;2023-04-03T04:02:29;0.10;99.90
55721;DHT22;41626;53.098;6.168;2023-04-03T04:04:54;0.20;99.90
55721;DHT22;41626;53.098;6.168;2023-04-03T04:07:20;0.30;99.90
55721;DHT22;41626;53.098;6.168;2023-04-03T04:09:46;0.30;99.90
55721;DHT22;41626;53.098;6.168;2023-04-03T04:12:11;0.30;99.90
55721;DHT22;41626;53.098;6.168;2023-04-03T04:14:37;0.20;99.90
55721;DHT22;41626;53.098;6.168;2023-04-03T04:17:03;0.20;99.90
55721;DHT22;41626;53.098;6.168;2023-04-03T04:19:28;0.20;99.90
55721;DHT22;41626;53.098;6.168;2023-04-03T04:21:54;0.20;99.90
55721;DHT22;41626;53.098;6.168;2023-04-03T04:24:20;0.00;99.90
55721;DHT22;41626;53.098;6.168;2023-04-03T04:26:45;-0.10;99.90
55721;DHT22;41626;53.098;6.168;2023-04-03T04:29:11;-0.10;99.90
55721;DHT22;41626;53.098;6.168;2023-04-03T04:31:36;-0.10;99.90
55721;DHT22;41626;53.098;6.168;2023-04-03T04:34:02;0.00;99.90
55721;DHT22;41626;53.098;6.168;2023-04-03T04:36:28;0.00;99.90
55721;DHT22;41626;53.098;6.168;2023-04-03T04:38:53;0.00;99.90
55721;DHT22;41626;53.098;6.168;2023-04-03T04:41:20;0.00;99.90
55721;DHT22;41626;53.098;6.168;2023-04-03T04:43:48;0.00;99.90
55721;DHT22;41626;53.098;6.168;2023-04-03T04:46:14;0.00;99.90
55721;DHT22;41626;53.098;6.168;2023-04-03T04:48:40;-0.20;99.90
55721;DHT22;41626;53.098;6.168;2023-04-03T04:51:07;-0.10;99.90
55721;DHT22;41626;53.098;6.168;2023-04-03T04:53:32;-0.20;99.90
55721;DHT22;41626;53.098;6.168;2023-04-03T04:55:58;-0.10;99.90
55721;DHT22;41626;53.098;6.168;2023-04-03T04:58:24;-0.20;99.90
55721;DHT22;41626;53.098;6.168;2023-04-03T05:01:01;-0.30;99.90
55721;DHT22;41626;53.098;6.168;2023-04-03T05:03:27;-0.30;99.90
55721;DHT22;41626;53.098;6.168;2023-04-03T05:05:53;-0.30;99.90
55721;DHT22;41626;53.098;6.168;2023-04-03T05:08:19;-0.30;99.90
55721;DHT22;41626;53.098;6.168;2023-04-03T05:10:46;-0.30;99.90
55721;DHT22;41626;53.098;6.168;2023-04-03T05:13:12;-0.30;99.90
55721;DHT22;41626;53.098;6.168;2023-04-03T05:15:37;-0.30;99.90
55721;DHT22;41626;53.098;6.168;2023-04-03T05:18:03;-0.30;99.90
55721;DHT22;41626;53.098;6.168;2023-04-03T05:20:30;-0.40;99.90
55721;DHT22;41626;53.098;6.168;2023-04-03T05:22:56;-0.30;99.90
55721;DHT22;41626;53.098;6.168;2023-04-03T05:25:22;-0.10;99.90
55721;DHT22;41626;53.098;6.168;2023-04-03T05:27:47;-0.20;99.90
55721;DHT22;41626;53.098;6.168;2023-04-03T05:30:13;-0.10;99.90
55721;DHT22;41626;53.098;6.168;2023-04-03T05:32:39;0.70;99.90
55721;DHT22;41626;53.098;6.168;2023-04-03T05:35:06;0.60;99.90
55721;DHT22;41626;53.098;6.168;2023-04-03T05:37:33;0.40;99.90
55721;DHT22;41626;53.098;6.168;2023-04-03T05:39:59;1.20;99.90
55721;DHT22;41626;53.098;6.168;2023-04-03T05:42:25;0.60;99.90
55721;DHT22;41626;53.098;6.168;2023-04-03T05:44:51;0.50;99.90
55721;DHT22;41626;53.098;6.168;2023-04-03T05:47:17;0.70;99.90
55721;DHT22;41626;53.098;6.168;2023-04-03T05:49:43;0.70;99.90
55721;DHT22;41626;53.098;6.168;2023-04-03T05:52:31;0.60;99.90
55721;DHT22;41626;53.098;6.168;2023-04-03T05:54:58;0.50;99.90
55721;DHT22;41626;53.098;6.168;2023-04-03T05:57:24;0.70;99.90
55721;DHT22;41626;53.098;6.168;2023-04-03T05:59:50;0.50;99.90
55721;DHT22;41626;53.098;6.168;2023-04-03T06:02:18;0.60;99.90
55721;DHT22;41626;53.098;6.168;2023-04-03T06:04:44;0.70;99.90
55721;DHT22;41626;53.098;6.168;2023-04-03T06:07:15;0.70;99.90
55721;DHT22;41626;53.098;6.168;2023-04-03T06:09:41;0.80;99.90
55721;DHT22;41626;53.098;6.168;2023-04-03T06:12:07;1.00;99.90
55721;DHT22;41626;53.098;6.168;2023-04-03T06:14:33;0.70;99.90
55721;DHT22;41626;53.098;6.168;2023-04-03T06:16:59;1.10;99.90
55721;DHT22;41626;53.098;6.168;2023-04-03T06:19:25;1.10;99.90
55721;DHT22;41626;53.098;6.168;2023-04-03T06:21:52;1.00;99.90
55721;DHT22;41626;53.098;6.168;2023-04-03T06:24:18;1.10;99.90
55721;DHT22;41626;53.098;6.168;2023-04-03T06:26:44;1.20;99.90
55721;DHT22;41626;53.098;6.168;2023-04-03T06:29:09;1.20;99.90
55721;DHT22;41626;53.098;6.168;2023-04-03T06:31:36;1.40;99.90
55721;DHT22;41626;53.098;6.168;2023-04-03T06:34:05;1.60;99.90
55721;DHT22;41626;53.098;6.168;2023-04-03T06:36:32;1.30;99.90
55721;DHT22;41626;53.098;6.168;2023-04-03T06:38:58;1.20;99.90
55721;DHT22;41626;53.098;6.168;2023-04-03T06:41:24;1.50;99.90
55721;DHT22;41626;53.098;6.168;2023-04-03T06:43:51;1.70;99.90
55721;DHT22;41626;53.098;6.168;2023-04-03T06:46:18;1.70;99.90
55721;DHT22;41626;53.098;6.168;2023-04-03T06:48:45;1.90;99.90
55721;DHT22;41626;53.098;6.168;2023-04-03T06:51:25;2.40;99.90
55721;DHT22;41626;53.098;6.168;2023-04-03T06:53:53;2.40;99.90
55721;DHT22;41626;53.098;6.168;2023-04-03T06:56:20;2.10;99.90
55721;DHT22;41626;53.098;6.168;2023-04-03T06:58:46;1.90;99.90
55721;DHT22;41626;53.098;6.168;2023-04-03T07:01:13;2.10;99.90
55721;DHT22;41626;53.098;6.168;2023-04-03T07:03:39;2.60;99.90
55721;DHT22;41626;53.098;6.168;2023-04-03T07:06:06;2.10;99.90
55721;DHT22;41626;53.098;6.168;2023-04-03T07:08:34;2.20;99.90
55721;DHT22;41626;53.098;6.168;2023-04-03T07:11:00;2.20;99.90
55721;DHT22;41626;53.098;6.168;2023-04-03T07:13:26;2.20;99.90
55721;DHT22;41626;53.098;6.168;2023-04-03T07:15:52;2.40;99.90
55721;DHT22;41626;53.098;6.168;2023-04-03T07:18:18;2.50;99.90
55721;DHT22;41626;53.098;6.168;2023-04-03T07:20:43;2.50;99.90
55721;DHT22;41626;53.098;6.168;2023-04-03T07:23:09;2.70;99.90
55721;DHT22;41626;53.098;6.168;2023-04-03T07:25:36;2.80;99.90
55721;DHT22;41626;53.098;6.168;2023-04-03T07:28:01;2.90;99.90
55721;DHT22;41626;53.098;6.168;2023-04-03T07:30:27;3.00;99.90
55721;DHT22;41626;53.098;6.168;2023-04-03T07:32:53;3.00;99.90
55721;DHT22;41626;53.098;6.168;2023-04-03T07:35:18;3.20;99.90
55721;DHT22;41626;53.098;6.168;2023-04-03T07:37:44;3.30;99.90
55721;DHT22;41626;53.098;6.168;2023-04-03T07:40:10;3.30;99.90
55721;DHT22;41626;53.098;6.168;2023-04-03T07:42:36;3.30;99.90
55721;DHT22;41626;53.098;6.168;2023-04-03T07:45:03;3.30;99.90
55721;DHT22;41626;53.098;6.168;2023-04-03T07:47:30;3.40;99.90
55721;DHT22;41626;53.098;6.168;2023-04-03T07:49:56;3.60;99.90
55721;DHT22;41626;53.098;6.168;2023-04-03T07:52:23;3.70;99.90
55721;DHT22;41626;53.098;6.168;2023-04-03T07:54:48;3.90;99.90
55721;DHT22;41626;53.098;6.168;2023-04-03T07:57:14;4.00;99.90
55721;DHT22;41626;53.098;6.168;2023-04-03T07:59:40;4.00;99.90
55721;DHT22;41626;53.098;6.168;2023-04-03T08:02:11;4.10;99.90
55721;DHT22;41626;53.098;6.168;2023-04-03T08:04:37;4.10;99.90
55721;DHT22;41626;53.098;6.168;2023-04-03T08:07:03;4.10;99.90
55721;DHT22;41626;53.098;6.168;2023-04-03T08:09:29;4.10;99.90
55721;DHT22;41626;53.098;6.168;2023-04-03T08:11:55;4.40;99.90
55721;DHT22;41626;53.098;6.168;2023-04-03T08:14:20;4.30;99.90
55721;DHT22;41626;53.098;6.168;2023-04-03T08:16:47;4.20;99.90
55721;DHT22;41626;53.098;6.168;2023-04-03T08:19:14;4.40;99.90
55721;DHT22;41626;53.098;6.168;2023-04-03T08:21:42;4.40;99.90
55721;DHT22;41626;53.098;6.168;2023-04-03T08:24:08;4.50;99.90
55721;DHT22;41626;53.098;6.168;2023-04-03T08:26:34;4.70;99.90
55721;DHT22;41626;53.098;6.168;2023-04-03T08:29:00;4.80;99.90
55721;DHT22;41626;53.098;6.168;2023-04-03T08:31:26;5.00;99.90
55721;DHT22;41626;53.098;6.168;2023-04-03T08:33:52;5.00;99.90
55721;DHT22;41626;53.098;6.168;2023-04-03T08:36:24;5.10;99.90
55721;DHT22;41626;53.098;6.168;2023-04-03T08:38:50;5.10;99.90
55721;DHT22;41626;53.098;6.168;2023-04-03T08:44:15;5.40;99.90
55721;DHT22;41626;53.098;6.168;2023-04-03T08:49:33;5.50;99.90
55721;DHT22;41626;53.098;6.168;2023-04-03T08:52:04;5.40;99.90
55721;DHT22;41626;53.098;6.168;2023-04-03T08:54:34;5.20;99.90
55721;DHT22;41626;53.098;6.168;2023-04-03T08:57:03;5.60;99.90
55721;DHT22;41626;53.098;6.168;2023-04-03T08:59:33;5.50;99.90
55721;DHT22;41626;53.098;6.168;2023-04-03T09:02:03;5.70;99.90
55721;DHT22;41626;53.098;6.168;2023-04-03T09:04:32;5.80;99.90
55721;DHT22;41626;53.098;6.168;2023-04-03T09:07:06;5.90;99.90
55721;DHT22;41626;53.098;6.168;2023-04-03T09:09:35;6.00;99.90
55721;DHT22;41626;53.098;6.168;2023-04-03T09:18:35;6.20;99.90
55721;DHT22;41626;53.098;6.168;2023-04-03T09:21:01;6.10;99.90
55721;DHT22;41626;53.098;6.168;2023-04-03T09:26:08;6.40;99.90
55721;DHT22;41626;53.098;6.168;2023-04-03T09:28:38;6.20;99.90
55721;DHT22;41626;53.098;6.168;2023-04-03T09:31:23;6.40;99.90
55721;DHT22;41626;53.098;6.168;2023-04-03T09:34:01;6.40;99.90
55721;DHT22;41626;53.098;6.168;2023-04-03T09:39:14;6.50;99.90
55721;DHT22;41626;53.098;6.168;2023-04-03T09:41:42;6.60;99.90
55721;DHT22;41626;53.098;6.168;2023-04-03T09:44:26;6.70;99.90
55721;DHT22;41626;53.098;6.168;2023-04-03T09:46:52;6.70;99.90
55721;DHT22;41626;53.098;6.168;2023-04-03T09:49:18;6.80;99.90
55721;DHT22;41626;53.098;6.168;2023-04-03T09:51:44;6.90;99.90
55721;DHT22;41626;53.098;6.168;2023-04-03T09:54:33;7.00;99.90
55721;DHT22;41626;53.098;6.168;2023-04-03T09:57:11;6.80;99.90
55721;DHT22;41626;53.098;6.168;2023-04-03T09:59:46;6.80;99.90
55721;DHT22;41626;53.098;6.168;2023-04-03T10:02:41;6.80;99.90
55721;DHT22;41626;53.098;6.168;2023-04-03T10:05:34;7.10;99.90
55721;DHT22;41626;53.098;6.168;2023-04-03T10:10:46;7.10;99.90
55721;DHT22;41626;53.098;6.168;2023-04-03T10:13:20;7.00;99.90
55721;DHT22;41626;53.098;6.168;2023-04-03T10:15:54;6.80;99.90
55721;DHT22;41626;53.098;6.168;2023-04-03T10:18:42;7.10;99.90
55721;DHT22;41626;53.098;6.168;2023-04-03T10:24:15;7.20;98.00
55721;DHT22;41626;53.098;6.168;2023-04-03T10:27:22;7.20;99.90
55721;DHT22;41626;53.098;6.168;2023-04-03T10:29:59;7.40;98.90
55721;DHT22;41626;53.098;6.168;2023-04-03T10:35:18;7.50;99.60
55721;DHT22;41626;53.098;6.168;2023-04-03T10:41:07;7.70;97.80
55721;DHT22;41626;53.098;6.168;2023-04-03T10:43:44;7.40;95.70
55721;DHT22;41626;53.098;6.168;2023-04-03T10:56:48;8.20;97.70
55721;DHT22;41626;53.098;6.168;2023-04-03T11:02:16;8.30;96.00
55721;DHT22;41626;53.098;6.168;2023-04-03T11:04:48;8.10;96.70
55721;DHT22;41626;53.098;6.168;2023-04-03T11:07:17;8.20;95.40
55721;DHT22;41626;53.098;6.168;2023-04-03T11:09:46;8.10;96.50
55721;DHT22;41626;53.098;6.168;2023-04-03T11:12:56;8.30;96.40
55721;DHT22;41626;53.098;6.168;2023-04-03T11:15:27;8.30;96.90
55721;DHT22;41626;53.098;6.168;2023-04-03T11:18:02;8.30;95.00
55721;DHT22;41626;53.098;6.168;2023-04-03T11:20:32;8.40;96.40
55721;DHT22;41626;53.098;6.168;2023-04-03T11:23:28;8.40;96.70
55721;DHT22;41626;53.098;6.168;2023-04-03T11:26:09;8.40;94.50
55721;DHT22;41626;53.098;6.168;2023-04-03T11:28:36;8.40;95.20
55721;DHT22;41626;53.098;6.168;2023-04-03T11:36:53;8.60;96.60
55721;DHT22;41626;53.098;6.168;2023-04-03T11:39:22;8.40;94.00
55721;DHT22;41626;53.098;6.168;2023-04-03T11:41:49;8.30;95.30
55721;DHT22;41626;53.098;6.168;2023-04-03T11:44:34;8.20;94.70
55721;DHT22;41626;53.098;6.168;2023-04-03T11:47:02;8.30;95.10
55721;DHT22;41626;53.098;6.168;2023-04-03T11:50:00;8.40;94.30
55721;DHT22;41626;53.098;6.168;2023-04-03T11:52:57;8.60;95.90
55721;DHT22;41626;53.098;6.168;2023-04-03T12:29:34;8.40;96.50
55721;DHT22;41626;53.098;6.168;2023-04-03T12:40:50;8.30;95.20
55721;DHT22;41626;53.098;6.168;2023-04-03T12:48:51;8.60;95.50
55721;DHT22;41626;53.098;6.168;2023-04-03T12:51:37;8.80;95.20
55721;DHT22;41626;53.098;6.168;2023-04-03T12:57:16;8.60;93.70
55721;DHT22;41626;53.098;6.168;2023-04-03T12:59:42;8.70;94.30
55721;DHT22;41626;53.098;6.168;2023-04-03T13:02:30;8.80;97.10
55721;DHT22;41626;53.098;6.168;2023-04-03T13:04:58;8.90;95.70
55721;DHT22;41626;53.098;6.168;2023-04-03T13:07:33;9.00;95.50
55721;DHT22;41626;53.098;6.168;2023-04-03T13:12:56;9.10;94.50
55721;DHT22;41626;53.098;6.168;2023-04-03T13:15:39;9.30;96.70
55721;DHT22;41626;53.098;6.168;2023-04-03T13:18:31;9.50;96.40
55721;DHT22;41626;53.098;6.168;2023-04-03T13:21:06;9.40;95.20
55721;DHT22;41626;53.098;6.168;2023-04-03T13:23:35;9.00;94.00
55721;DHT22;41626;53.098;6.168;2023-04-03T13:26:02;9.00;93.70
55721;DHT22;41626;53.098;6.168;2023-04-03T13:28:30;8.90;93.10
55721;DHT22;41626;53.098;6.168;2023-04-03T13:33:30;8.70;95.40
55721;DHT22;41626;53.098;6.168;2023-04-03T13:39:05;8.90;93.80
55721;DHT22;41626;53.098;6.168;2023-04-03T13:41:35;8.90;93.40
55721;DHT22;41626;53.098;6.168;2023-04-03T13:44:17;8.70;93.80
55721;DHT22;41626;53.098;6.168;2023-04-03T13:46:43;8.60;93.90
55721;DHT22;41626;53.098;6.168;2023-04-03T13:51:56;8.80;94.00
55721;DHT22;41626;53.098;6.168;2023-04-03T13:56:58;8.60;93.20
55721;DHT22;41626;53.098;6.168;2023-04-03T13:59:31;8.60;94.20
55721;DHT22;41626;53.098;6.168;2023-04-03T14:07:14;9.10;95.20
55721;DHT22;41626;53.098;6.168;2023-04-03T14:09:40;9.10;94.10
55721;DHT22;41626;53.098;6.168;2023-04-03T14:12:11;9.10;94.30
55721;DHT22;41626;53.098;6.168;2023-04-03T14:14:39;9.10;94.40
55721;DHT22;41626;53.098;6.168;2023-04-03T14:17:21;9.00;94.30
55721;DHT22;41626;53.098;6.168;2023-04-03T14:19:49;8.60;93.70
55721;DHT22;41626;53.098;6.168;2023-04-03T14:22:24;8.90;95.30
55721;DHT22;41626;53.098;6.168;2023-04-03T14:24:51;8.80;93.80
55721;DHT22;41626;53.098;6.168;2023-04-03T14:27:21;8.90;95.00
55721;DHT22;41626;53.098;6.168;2023-04-03T14:29:48;8.90;95.30
55721;DHT22;41626;53.098;6.168;2023-04-03T14:32:16;9.00;95.90
55721;DHT22;41626;53.098;6.168;2023-04-03T14:34:43;9.10;96.80
55721;DHT22;41626;53.098;6.168;2023-04-03T14:37:21;9.00;94.50
55721;DHT22;41626;53.098;6.168;2023-04-03T14:39:49;8.80;95.20
55721;DHT22;41626;53.098;6.168;2023-04-03T14:42:21;8.80;95.30
55721;DHT22;41626;53.098;6.168;2023-04-03T14:44:48;8.50;93.80
55721;DHT22;41626;53.098;6.168;2023-04-03T14:47:16;8.60;94.60
55721;DHT22;41626;53.098;6.168;2023-04-03T14:49:42;8.90;95.30
55721;DHT22;41626;53.098;6.168;2023-04-03T14:52:21;8.70;94.40
55721;DHT22;41626;53.098;6.168;2023-04-03T14:54:48;8.70;94.90
55721;DHT22;41626;53.098;6.168;2023-04-03T14:57:15;8.80;95.60
55721;DHT22;41626;53.098;6.168;2023-04-03T14:59:42;8.90;95.40
55721;DHT22;41626;53.098;6.168;2023-04-03T15:02:32;8.80;94.50
55721;DHT22;41626;53.098;6.168;2023-04-03T15:04:59;8.80;94.30
55721;DHT22;41626;53.098;6.168;2023-04-03T15:07:27;8.90;93.20
55721;DHT22;41626;53.098;6.168;2023-04-03T15:09:54;8.90;94.00
55721;DHT22;41626;53.098;6.168;2023-04-03T15:12:23;8.90;96.80
55721;DHT22;41626;53.098;6.168;2023-04-03T15:14:49;8.60;97.60
55721;DHT22;41626;53.098;6.168;2023-04-03T15:17:17;8.50;99.70
55721;DHT22;41626;53.098;6.168;2023-04-03T15:19:45;8.70;99.90
55721;DHT22;41626;53.098;6.168;2023-04-03T15:22:16;8.70;99.90
55721;DHT22;41626;53.098;6.168;2023-04-03T15:24:42;8.60;99.90
55721;DHT22;41626;53.098;6.168;2023-04-03T15:27:09;8.40;99.90
55721;DHT22;41626;53.098;6.168;2023-04-03T15:29:35;8.50;99.90
55721;DHT22;41626;53.098;6.168;2023-04-03T15:32:01;8.50;99.90
55721;DHT22;41626;53.098;6.168;2023-04-03T15:34:28;8.40;99.90
55721;DHT22;41626;53.098;6.168;2023-04-03T15:36:54;8.60;99.90
55721;DHT22;41626;53.098;6.168;2023-04-03T15:39:20;8.40;99.90
55721;DHT22;41626;53.098;6.168;2023-04-03T15:41:46;8.40;99.90
55721;DHT22;41626;53.098;6.168;2023-04-03T15:44:12;8.30;99.90
55721;DHT22;41626;53.098;6.168;2023-04-03T15:46:38;8.30;99.90
55721;DHT22;41626;53.098;6.168;2023-04-03T15:49:05;8.40;99.90
55721;DHT22;41626;53.098;6.168;2023-04-03T15:51:31;8.20;99.90
55721;DHT22;41626;53.098;6.168;2023-04-03T15:53:56;8.20;99.90
55721;DHT22;41626;53.098;6.168;2023-04-03T15:56:22;8.30;99.90
55721;DHT22;41626;53.098;6.168;2023-04-03T15:58:48;8.20;99.90
55721;DHT22;41626;53.098;6.168;2023-04-03T16:01:14;8.30;99.90
55721;DHT22;41626;53.098;6.168;2023-04-03T16:03:41;8.40;99.90
55721;DHT22;41626;53.098;6.168;2023-04-03T16:06:12;8.20;99.90
55721;DHT22;41626;53.098;6.168;2023-04-03T16:08:38;8.30;99.90
55721;DHT22;41626;53.098;6.168;2023-04-03T16:11:04;8.20;99.90
55721;DHT22;41626;53.098;6.168;2023-04-03T16:13:30;8.20;99.90
55721;DHT22;41626;53.098;6.168;2023-04-03T16:15:57;8.40;99.90
55721;DHT22;41626;53.098;6.168;2023-04-03T16:18:22;8.20;99.90
55721;DHT22;41626;53.098;6.168;2023-04-03T16:20:48;8.20;99.90
55721;DHT22;41626;53.098;6.168;2023-04-03T16:23:14;8.10;99.90
55721;DHT22;41626;53.098;6.168;2023-04-03T16:25:40;8.10;99.90
55721;DHT22;41626;53.098;6.168;2023-04-03T16:28:12;8.00;99.90
55721;DHT22;41626;53.098;6.168;2023-04-03T16:30:37;8.10;99.90
55721;DHT22;41626;53.098;6.168;2023-04-03T16:33:04;8.20;99.90
55721;DHT22;41626;53.098;6.168;2023-04-03T16:35:30;8.20;99.90
55721;DHT22;41626;53.098;6.168;2023-04-03T16:37:55;8.10;99.90
55721;DHT22;41626;53.098;6.168;2023-04-03T16:40:21;7.90;99.90
55721;DHT22;41626;53.098;6.168;2023-04-03T16:42:47;7.90;99.90
55721;DHT22;41626;53.098;6.168;2023-04-03T16:45:13;7.80;99.90
55721;DHT22;41626;53.098;6.168;2023-04-03T16:47:38;7.90;99.90
55721;DHT22;41626;53.098;6.168;2023-04-03T16:50:04;7.70;99.90
55721;DHT22;41626;53.098;6.168;2023-04-03T16:52:30;7.70;99.90
55721;DHT22;41626;53.098;6.168;2023-04-03T16:54:56;7.50;99.90
55721;DHT22;41626;53.098;6.168;2023-04-03T16:57:24;7.40;99.90
55721;DHT22;41626;53.098;6.168;2023-04-03T16:59:50;7.40;99.90
55721;DHT22;41626;53.098;6.168;2023-04-03T17:02:16;7.30;99.90
55721;DHT22;41626;53.098;6.168;2023-04-03T17:04:42;7.30;99.90
55721;DHT22;41626;53.098;6.168;2023-04-03T17:07:08;7.30;99.90
55721;DHT22;41626;53.098;6.168;2023-04-03T17:09:34;7.30;99.90
55721;DHT22;41626;53.098;6.168;2023-04-03T17:12:00;7.20;99.90
55721;DHT22;41626;53.098;6.168;2023-04-03T17:14:26;7.00;99.90
55721;DHT22;41626;53.098;6.168;2023-04-03T17:16:51;7.10;99.90
55721;DHT22;41626;53.098;6.168;2023-04-03T17:19:17;7.10;99.90
55721;DHT22;41626;53.098;6.168;2023-04-03T17:21:44;7.00;99.90
55721;DHT22;41626;53.098;6.168;2023-04-03T17:24:11;6.80;99.90
55721;DHT22;41626;53.098;6.168;2023-04-03T17:26:39;6.90;99.90
55721;DHT22;41626;53.098;6.168;2023-04-03T17:29:06;6.80;99.90
55721;DHT22;41626;53.098;6.168;2023-04-03T17:31:31;6.60;99.90
55721;DHT22;41626;53.098;6.168;2023-04-03T17:33:57;6.60;99.90
55721;DHT22;41626;53.098;6.168;2023-04-03T17:36:27;6.60;99.90
55721;DHT22;41626;53.098;6.168;2023-04-03T17:38:53;6.50;99.90
55721;DHT22;41626;53.098;6.168;2023-04-03T17:41:20;6.30;99.90
55721;DHT22;41626;53.098;6.168;2023-04-03T17:43:46;6.30;99.90
55721;DHT22;41626;53.098;6.168;2023-04-03T17:46:12;6.30;99.90
55721;DHT22;41626;53.098;6.168;2023-04-03T17:48:39;6.10;99.90
55721;DHT22;41626;53.098;6.168;2023-04-03T17:51:13;6.10;99.90
55721;DHT22;41626;53.098;6.168;2023-04-03T17:53:39;6.00;99.90
55721;DHT22;41626;53.098;6.168;2023-04-03T17:56:16;5.90;99.90
55721;DHT22;41626;53.098;6.168;2023-04-03T17:58:43;5.80;99.90
55721;DHT22;41626;53.098;6.168;2023-04-03T18:01:14;5.80;99.90